sensor_id;sensor_type;location;lat;lon;timestamp;P1;durP1;ratioP1;P2;durP2;ratioP2
40501;SDS011;29631;49.168;9.848;2023-08-31T00:00:43;1.38;;;1.27;;
40501;SDS011;29631;49.168;9.848;2023-08-31T00:03:09;1.27;;;1.27;;
40501;SDS011;29631;49.168;9.848;2023-08-31T00:05:36;1.20;;;1.20;;
40501;SDS011;29631;49.168;9.848;2023-08-31T00:08:07;1.20;;;1.20;;
40501;SDS011;29631;49.168;9.848;2023-08-31T00:10:33;0.98;;;0.98;;
40501;SDS011;29631;49.168;9.848;2023-08-31T00:13:04;1.65;;;1.13;;
40501;SDS011;29631;49.168;9.848;2023-08-31T00:15:33;1.98;;;1.15;;
40501;SDS011;29631;49.168;9.848;2023-08-31T00:18:01;1.35;;;1.25;;
40501;SDS011;29631;49.168;9.848;2023-08-31T00:20:30;1.27;;;1.27;;
40501;SDS011;29631;49.168;9.848;2023-08-31T00:22:58;3.22;;;1.10;;
40501;SDS011;29631;49.168;9.848;2023-08-31T00:25:24;1.13;;;1.13;;
40501;SDS011;29631;49.168;9.848;2023-08-31T00:27:50;1.48;;;1.40;;
40501;SDS011;29631;49.168;9.848;2023-08-31T00:30:17;1.15;;;1.15;;
40501;SDS011;29631;49.168;9.848;2023-08-31T00:32:43;1.20;;;1.20;;
40501;SDS011;29631;49.168;9.848;2023-08-31T00:35:09;1.02;;;1.00;;
40501;SDS011;29631;49.168;9.848;2023-08-31T00:37:35;1.30;;;1.20;;
40501;SDS011;29631;49.168;9.848;2023-08-31T00:40:01;1.40;;;1.30;;
40501;SDS011;29631;49.168;9.848;2023-08-31T00:42:29;1.20;;;1.20;;
40501;SDS011;29631;49.168;9.848;2023-08-31T00:44:56;4.63;;;1.50;;
40501;SDS011;29631;49.168;9.848;2023-08-31T00:47:22;1.50;;;1.40;;
40501;SDS011;29631;49.168;9.848;2023-08-31T00:49:47;1.13;;;1.10;;
40501;SDS011;29631;49.168;9.848;2023-08-31T00:52:14;1.10;;;1.10;;
40501;SDS011;29631;49.168;9.848;2023-08-31T00:54:40;1.52;;;1.42;;
40501;SDS011;29631;49.168;9.848;2023-08-31T00:57:07;1.20;;;1.10;;
40501;SDS011;29631;49.168;9.848;2023-08-31T00:59:34;1.15;;;1.10;;
40501;SDS011;29631;49.168;9.848;2023-08-31T01:02:11;1.08;;;1.08;;
40501;SDS011;29631;49.168;9.848;2023-08-31T01:05:18;1.10;;;1.10;;
40501;SDS011;29631;49.168;9.848;2023-08-31T01:08:14;2.28;;;1.38;;
40501;SDS011;29631;49.168;9.848;2023-08-31T01:13:32;1.50;;;1.40;;
40501;SDS011;29631;49.168;9.848;2023-08-31T01:16:03;1.30;;;1.20;;
40501;SDS011;29631;49.168;9.848;2023-08-31T01:18:32;1.70;;;1.60;;
40501;SDS011;29631;49.168;9.848;2023-08-31T01:21:02;1.20;;;1.20;;
40501;SDS011;29631;49.168;9.848;2023-08-31T01:23:52;1.70;;;1.60;;
40501;SDS011;29631;49.168;9.848;2023-08-31T01:26:19;1.67;;;1.65;;
40501;SDS011;29631;49.168;9.848;2023-08-31T01:28:47;1.70;;;1.60;;
40501;SDS011;29631;49.168;9.848;2023-08-31T01:31:13;1.92;;;1.83;;
40501;SDS011;29631;49.168;9.848;2023-08-31T01:33:40;1.55;;;1.50;;
40501;SDS011;29631;49.168;9.848;2023-08-31T01:36:08;2.50;;;1.80;;
40501;SDS011;29631;49.168;9.848;2023-08-31T01:39:02;1.83;;;1.63;;
40501;SDS011;29631;49.168;9.848;2023-08-31T01:42:05;2.15;;;1.60;;
40501;SDS011;29631;49.168;9.848;2023-08-31T01:44:32;2.00;;;1.90;;
40501;SDS011;29631;49.168;9.848;2023-08-31T01:47:02;1.88;;;1.70;;
40501;SDS011;29631;49.168;9.848;2023-08-31T01:49:37;1.88;;;1.77;;
40501;SDS011;29631;49.168;9.848;2023-08-31T01:52:06;1.70;;;1.70;;
40501;SDS011;29631;49.168;9.848;2023-08-31T01:54:32;1.80;;;1.70;;
40501;SDS011;29631;49.168;9.848;2023-08-31T01:56:58;1.70;;;1.60;;
40501;SDS011;29631;49.168;9.848;2023-08-31T01:59:24;1.83;;;1.73;;
40501;SDS011;29631;49.168;9.848;2023-08-31T02:01:51;1.73;;;1.63;;
40501;SDS011;29631;49.168;9.848;2023-08-31T02:04:17;2.00;;;1.90;;
40501;SDS011;29631;49.168;9.848;2023-08-31T02:06:42;2.20;;;2.00;;
40501;SDS011;29631;49.168;9.848;2023-08-31T02:09:08;1.80;;;1.70;;
40501;SDS011;29631;49.168;9.848;2023-08-31T02:11:34;2.05;;;1.88;;
40501;SDS011;29631;49.168;9.848;2023-08-31T02:14:03;2.00;;;1.90;;
40501;SDS011;29631;49.168;9.848;2023-08-31T02:16:30;1.95;;;1.85;;
40501;SDS011;29631;49.168;9.848;2023-08-31T02:18:56;2.05;;;1.95;;
40501;SDS011;29631;49.168;9.848;2023-08-31T02:21:23;1.95;;;1.85;;
40501;SDS011;29631;49.168;9.848;2023-08-31T02:23:49;1.85;;;1.70;;
40501;SDS011;29631;49.168;9.848;2023-08-31T02:26:15;3.15;;;1.85;;
40501;SDS011;29631;49.168;9.848;2023-08-31T02:28:40;2.05;;;1.95;;
40501;SDS011;29631;49.168;9.848;2023-08-31T02:31:06;1.95;;;1.70;;
40501;SDS011;29631;49.168;9.848;2023-08-31T02:33:36;1.80;;;1.70;;
40501;SDS011;29631;49.168;9.848;2023-08-31T02:36:01;2.13;;;1.83;;
40501;SDS011;29631;49.168;9.848;2023-08-31T02:38:27;2.10;;;1.90;;
40501;SDS011;29631;49.168;9.848;2023-08-31T02:40:53;1.80;;;1.70;;
40501;SDS011;29631;49.168;9.848;2023-08-31T02:43:19;2.08;;;1.98;;
40501;SDS011;29631;49.168;9.848;2023-08-31T02:45:45;1.80;;;1.70;;
40501;SDS011;29631;49.168;9.848;2023-08-31T02:48:10;1.95;;;1.85;;
40501;SDS011;29631;49.168;9.848;2023-08-31T02:50:38;2.00;;;1.90;;
40501;SDS011;29631;49.168;9.848;2023-08-31T02:53:04;2.20;;;2.00;;
40501;SDS011;29631;49.168;9.848;2023-08-31T02:55:33;1.77;;;1.70;;
40501;SDS011;29631;49.168;9.848;2023-08-31T02:57:59;2.15;;;2.05;;
40501;SDS011;29631;49.168;9.848;2023-08-31T03:00:25;2.15;;;2.05;;
40501;SDS011;29631;49.168;9.848;2023-08-31T03:02:51;2.78;;;2.08;;
40501;SDS011;29631;49.168;9.848;2023-08-31T03:05:17;2.10;;;2.00;;
40501;SDS011;29631;49.168;9.848;2023-08-31T03:07:43;2.08;;;1.98;;
40501;SDS011;29631;49.168;9.848;2023-08-31T03:10:09;2.22;;;2.13;;
40501;SDS011;29631;49.168;9.848;2023-08-31T03:12:35;2.25;;;2.15;;
40501;SDS011;29631;49.168;9.848;2023-08-31T03:15:02;2.17;;;2.08;;
40501;SDS011;29631;49.168;9.848;2023-08-31T03:17:29;1.83;;;1.73;;
40501;SDS011;29631;49.168;9.848;2023-08-31T03:19:55;2.30;;;2.20;;
40501;SDS011;29631;49.168;9.848;2023-08-31T03:22:20;2.13;;;1.90;;
40501;SDS011;29631;49.168;9.848;2023-08-31T03:24:46;2.08;;;1.85;;
40501;SDS011;29631;49.168;9.848;2023-08-31T03:27:12;2.30;;;2.10;;
40501;SDS011;29631;49.168;9.848;2023-08-31T03:29:37;2.28;;;2.17;;
40501;SDS011;29631;49.168;9.848;2023-08-31T03:32:04;2.17;;;2.08;;
40501;SDS011;29631;49.168;9.848;2023-08-31T03:34:31;1.95;;;1.83;;
40501;SDS011;29631;49.168;9.848;2023-08-31T03:36:57;2.05;;;1.95;;
40501;SDS011;29631;49.168;9.848;2023-08-31T03:39:24;2.38;;;2.28;;
40501;SDS011;29631;49.168;9.848;2023-08-31T03:41:50;2.33;;;2.10;;
40501;SDS011;29631;49.168;9.848;2023-08-31T03:44:16;2.42;;;2.22;;
40501;SDS011;29631;49.168;9.848;2023-08-31T03:46:42;2.38;;;2.20;;
40501;SDS011;29631;49.168;9.848;2023-08-31T03:49:08;2.42;;;2.33;;
40501;SDS011;29631;49.168;9.848;2023-08-31T03:51:34;2.38;;;2.17;;
40501;SDS011;29631;49.168;9.848;2023-08-31T03:54:00;2.22;;;2.13;;
40501;SDS011;29631;49.168;9.848;2023-08-31T03:56:26;2.42;;;2.33;;
40501;SDS011;29631;49.168;9.848;2023-08-31T03:58:52;3.15;;;2.40;;
40501;SDS011;29631;49.168;9.848;2023-08-31T04:01:18;3.13;;;2.40;;
40501;SDS011;29631;49.168;9.848;2023-08-31T04:03:44;2.40;;;2.15;;
40501;SDS011;29631;49.168;9.848;2023-08-31T04:06:09;2.47;;;2.28;;
40501;SDS011;29631;49.168;9.848;2023-08-31T04:08:35;2.20;;;2.10;;
40501;SDS011;29631;49.168;9.848;2023-08-31T04:11:01;2.60;;;2.40;;
40501;SDS011;29631;49.168;9.848;2023-08-31T04:13:28;2.75;;;2.25;;
40501;SDS011;29631;49.168;9.848;2023-08-31T04:15:54;2.60;;;2.38;;
40501;SDS011;29631;49.168;9.848;2023-08-31T04:18:20;2.45;;;2.25;;
40501;SDS011;29631;49.168;9.848;2023-08-31T04:20:50;1.88;;;1.77;;
40501;SDS011;29631;49.168;9.848;2023-08-31T04:23:18;2.67;;;2.47;;
40501;SDS011;29631;49.168;9.848;2023-08-31T04:25:44;2.40;;;2.30;;
40501;SDS011;29631;49.168;9.848;2023-08-31T04:28:11;2.20;;;2.00;;
40501;SDS011;29631;49.168;9.848;2023-08-31T04:30:37;2.35;;;2.17;;
40501;SDS011;29631;49.168;9.848;2023-08-31T04:33:06;2.30;;;2.10;;
40501;SDS011;29631;49.168;9.848;2023-08-31T04:35:32;2.10;;;2.00;;
40501;SDS011;29631;49.168;9.848;2023-08-31T04:37:58;2.45;;;1.90;;
40501;SDS011;29631;49.168;9.848;2023-08-31T04:40:24;4.22;;;2.13;;
40501;SDS011;29631;49.168;9.848;2023-08-31T04:42:52;2.90;;;2.25;;
40501;SDS011;29631;49.168;9.848;2023-08-31T04:45:18;2.60;;;2.42;;
40501;SDS011;29631;49.168;9.848;2023-08-31T04:47:43;2.15;;;2.05;;
40501;SDS011;29631;49.168;9.848;2023-08-31T04:50:10;2.20;;;2.10;;
40501;SDS011;29631;49.168;9.848;2023-08-31T04:52:35;2.45;;;2.33;;
40501;SDS011;29631;49.168;9.848;2023-08-31T04:55:01;2.60;;;2.30;;
40501;SDS011;29631;49.168;9.848;2023-08-31T04:57:32;2.38;;;2.17;;
40501;SDS011;29631;49.168;9.848;2023-08-31T04:59:58;2.67;;;2.47;;
40501;SDS011;29631;49.168;9.848;2023-08-31T05:02:24;2.85;;;2.30;;
40501;SDS011;29631;49.168;9.848;2023-08-31T05:04:50;2.13;;;2.00;;
40501;SDS011;29631;49.168;9.848;2023-08-31T05:07:16;2.78;;;2.50;;
40501;SDS011;29631;49.168;9.848;2023-08-31T05:09:42;2.50;;;2.30;;
40501;SDS011;29631;49.168;9.848;2023-08-31T05:12:08;2.33;;;2.22;;
40501;SDS011;29631;49.168;9.848;2023-08-31T05:14:33;3.85;;;2.30;;
40501;SDS011;29631;49.168;9.848;2023-08-31T05:17:02;2.97;;;2.67;;
40501;SDS011;29631;49.168;9.848;2023-08-31T05:19:30;2.13;;;2.03;;
40501;SDS011;29631;49.168;9.848;2023-08-31T05:21:56;3.10;;;2.10;;
40501;SDS011;29631;49.168;9.848;2023-08-31T05:24:21;2.60;;;2.40;;
40501;SDS011;29631;49.168;9.848;2023-08-31T05:26:48;2.03;;;1.92;;
40501;SDS011;29631;49.168;9.848;2023-08-31T05:29:14;1.88;;;1.75;;
40501;SDS011;29631;49.168;9.848;2023-08-31T05:31:40;3.60;;;2.33;;
40501;SDS011;29631;49.168;9.848;2023-08-31T05:34:06;3.88;;;2.10;;
40501;SDS011;29631;49.168;9.848;2023-08-31T05:36:32;2.00;;;1.90;;
40501;SDS011;29631;49.168;9.848;2023-08-31T05:38:57;2.08;;;1.83;;
40501;SDS011;29631;49.168;9.848;2023-08-31T05:41:23;1.98;;;1.88;;
40501;SDS011;29631;49.168;9.848;2023-08-31T05:43:49;3.70;;;1.90;;
40501;SDS011;29631;49.168;9.848;2023-08-31T05:46:15;1.88;;;1.75;;
40501;SDS011;29631;49.168;9.848;2023-08-31T05:48:41;2.15;;;1.95;;
40501;SDS011;29631;49.168;9.848;2023-08-31T05:51:07;1.92;;;1.83;;
40501;SDS011;29631;49.168;9.848;2023-08-31T05:53:34;2.22;;;2.00;;
40501;SDS011;29631;49.168;9.848;2023-08-31T05:56:00;1.98;;;1.80;;
40501;SDS011;29631;49.168;9.848;2023-08-31T05:58:33;2.25;;;1.98;;
40501;SDS011;29631;49.168;9.848;2023-08-31T06:01:00;2.50;;;1.85;;
40501;SDS011;29631;49.168;9.848;2023-08-31T06:03:27;2.42;;;2.25;;
40501;SDS011;29631;49.168;9.848;2023-08-31T06:05:54;3.95;;;2.30;;
40501;SDS011;29631;49.168;9.848;2023-08-31T06:08:21;2.22;;;2.03;;
40501;SDS011;29631;49.168;9.848;2023-08-31T06:10:47;2.58;;;2.22;;
40501;SDS011;29631;49.168;9.848;2023-08-31T06:13:13;3.92;;;1.98;;
40501;SDS011;29631;49.168;9.848;2023-08-31T06:15:38;2.10;;;2.00;;
40501;SDS011;29631;49.168;9.848;2023-08-31T06:18:04;1.85;;;1.75;;
40501;SDS011;29631;49.168;9.848;2023-08-31T06:20:31;2.17;;;1.98;;
40501;SDS011;29631;49.168;9.848;2023-08-31T06:22:57;2.28;;;2.03;;
40501;SDS011;29631;49.168;9.848;2023-08-31T06:25:24;2.20;;;2.00;;
40501;SDS011;29631;49.168;9.848;2023-08-31T06:27:50;2.10;;;2.00;;
40501;SDS011;29631;49.168;9.848;2023-08-31T06:30:16;2.20;;;2.00;;
40501;SDS011;29631;49.168;9.848;2023-08-31T06:32:43;1.98;;;1.88;;
40501;SDS011;29631;49.168;9.848;2023-08-31T06:35:11;3.17;;;1.95;;
40501;SDS011;29631;49.168;9.848;2023-08-31T06:37:37;2.20;;;1.90;;
40501;SDS011;29631;49.168;9.848;2023-08-31T06:40:08;2.45;;;2.25;;
40501;SDS011;29631;49.168;9.848;2023-08-31T06:42:35;2.10;;;1.90;;
40501;SDS011;29631;49.168;9.848;2023-08-31T06:45:03;2.25;;;2.05;;
40501;SDS011;29631;49.168;9.848;2023-08-31T06:47:30;1.80;;;1.70;;
40501;SDS011;29631;49.168;9.848;2023-08-31T06:49:56;2.33;;;1.67;;
40501;SDS011;29631;49.168;9.848;2023-08-31T06:52:25;2.42;;;1.67;;
40501;SDS011;29631;49.168;9.848;2023-08-31T06:54:52;1.70;;;1.60;;
40501;SDS011;29631;49.168;9.848;2023-08-31T06:57:24;2.88;;;1.70;;
40501;SDS011;29631;49.168;9.848;2023-08-31T06:59:52;1.75;;;1.65;;
40501;SDS011;29631;49.168;9.848;2023-08-31T07:02:18;2.30;;;2.10;;
40501;SDS011;29631;49.168;9.848;2023-08-31T07:04:44;1.80;;;1.70;;
40501;SDS011;29631;49.168;9.848;2023-08-31T07:07:11;2.17;;;1.90;;
40501;SDS011;29631;49.168;9.848;2023-08-31T07:09:39;1.75;;;1.67;;
40501;SDS011;29631;49.168;9.848;2023-08-31T07:12:07;1.70;;;1.60;;
40501;SDS011;29631;49.168;9.848;2023-08-31T07:14:33;1.80;;;1.70;;
40501;SDS011;29631;49.168;9.848;2023-08-31T07:16:59;1.80;;;1.70;;
40501;SDS011;29631;49.168;9.848;2023-08-31T07:19:24;1.70;;;1.60;;
40501;SDS011;29631;49.168;9.848;2023-08-31T07:21:51;1.77;;;1.67;;
40501;SDS011;29631;49.168;9.848;2023-08-31T07:24:19;2.17;;;1.52;;
40501;SDS011;29631;49.168;9.848;2023-08-31T07:26:46;2.55;;;1.77;;
40501;SDS011;29631;49.168;9.848;2023-08-31T07:29:12;2.05;;;1.83;;
40501;SDS011;29631;49.168;9.848;2023-08-31T07:31:38;2.28;;;1.80;;
40501;SDS011;29631;49.168;9.848;2023-08-31T07:34:04;2.17;;;1.48;;
40501;SDS011;29631;49.168;9.848;2023-08-31T07:36:30;3.22;;;1.90;;
40501;SDS011;29631;49.168;9.848;2023-08-31T07:38:56;1.77;;;1.60;;
40501;SDS011;29631;49.168;9.848;2023-08-31T07:41:21;1.40;;;1.30;;
40501;SDS011;29631;49.168;9.848;2023-08-31T07:43:47;1.95;;;1.80;;
40501;SDS011;29631;49.168;9.848;2023-08-31T07:46:14;1.65;;;1.40;;
40501;SDS011;29631;49.168;9.848;2023-08-31T07:48:41;2.45;;;1.85;;
40501;SDS011;29631;49.168;9.848;2023-08-31T07:51:07;3.05;;;1.80;;
40501;SDS011;29631;49.168;9.848;2023-08-31T07:53:33;4.30;;;1.70;;
40501;SDS011;29631;49.168;9.848;2023-08-31T07:55:59;3.47;;;1.63;;
40501;SDS011;29631;49.168;9.848;2023-08-31T07:58:25;2.65;;;1.23;;
40501;SDS011;29631;49.168;9.848;2023-08-31T08:00:54;2.03;;;1.80;;
40501;SDS011;29631;49.168;9.848;2023-08-31T08:03:21;1.77;;;1.67;;
40501;SDS011;29631;49.168;9.848;2023-08-31T08:05:48;2.35;;;1.70;;
40501;SDS011;29631;49.168;9.848;2023-08-31T08:08:17;1.60;;;1.50;;
40501;SDS011;29631;49.168;9.848;2023-08-31T08:10:43;2.30;;;1.50;;
40501;SDS011;29631;49.168;9.848;2023-08-31T08:13:09;1.80;;;1.70;;
40501;SDS011;29631;49.168;9.848;2023-08-31T08:15:35;1.92;;;1.73;;
40501;SDS011;29631;49.168;9.848;2023-08-31T08:18:01;3.00;;;1.92;;
40501;SDS011;29631;49.168;9.848;2023-08-31T08:20:27;3.22;;;1.63;;
40501;SDS011;29631;49.168;9.848;2023-08-31T08:22:53;1.40;;;1.30;;
40501;SDS011;29631;49.168;9.848;2023-08-31T08:25:20;1.52;;;1.42;;
40501;SDS011;29631;49.168;9.848;2023-08-31T08:27:47;1.70;;;1.60;;
40501;SDS011;29631;49.168;9.848;2023-08-31T08:30:13;1.70;;;1.60;;
40501;SDS011;29631;49.168;9.848;2023-08-31T08:32:40;1.85;;;1.45;;
40501;SDS011;29631;49.168;9.848;2023-08-31T08:35:07;1.40;;;1.30;;
40501;SDS011;29631;49.168;9.848;2023-08-31T08:37:33;1.33;;;1.20;;
40501;SDS011;29631;49.168;9.848;2023-08-31T08:39:59;2.15;;;1.65;;
40501;SDS011;29631;49.168;9.848;2023-08-31T08:42:25;1.80;;;1.50;;
40501;SDS011;29631;49.168;9.848;2023-08-31T08:44:54;2.30;;;1.50;;
40501;SDS011;29631;49.168;9.848;2023-08-31T08:47:22;1.83;;;1.70;;
40501;SDS011;29631;49.168;9.848;2023-08-31T08:49:49;1.45;;;1.35;;
40501;SDS011;29631;49.168;9.848;2023-08-31T08:52:16;2.92;;;1.50;;
40501;SDS011;29631;49.168;9.848;2023-08-31T08:54:43;3.00;;;1.90;;
40501;SDS011;29631;49.168;9.848;2023-08-31T08:57:09;1.65;;;1.55;;
40501;SDS011;29631;49.168;9.848;2023-08-31T08:59:35;1.60;;;1.50;;
40501;SDS011;29631;49.168;9.848;2023-08-31T09:02:01;1.63;;;1.20;;
40501;SDS011;29631;49.168;9.848;2023-08-31T09:04:29;1.60;;;1.48;;
40501;SDS011;29631;49.168;9.848;2023-08-31T09:06:56;2.38;;;1.98;;
40501;SDS011;29631;49.168;9.848;2023-08-31T09:09:21;2.53;;;1.60;;
40501;SDS011;29631;49.168;9.848;2023-08-31T09:11:47;2.42;;;1.42;;
40501;SDS011;29631;49.168;9.848;2023-08-31T09:14:17;1.83;;;1.33;;
40501;SDS011;29631;49.168;9.848;2023-08-31T09:16:45;2.00;;;1.63;;
40501;SDS011;29631;49.168;9.848;2023-08-31T09:19:19;1.83;;;1.50;;
40501;SDS011;29631;49.168;9.848;2023-08-31T09:21:48;1.77;;;1.30;;
40501;SDS011;29631;49.168;9.848;2023-08-31T09:24:15;2.55;;;1.55;;
40501;SDS011;29631;49.168;9.848;2023-08-31T09:26:43;1.50;;;1.40;;
40501;SDS011;29631;49.168;9.848;2023-08-31T09:29:11;2.30;;;1.77;;
40501;SDS011;29631;49.168;9.848;2023-08-31T09:31:37;1.50;;;1.40;;
40501;SDS011;29631;49.168;9.848;2023-08-31T09:34:07;1.75;;;1.55;;
40501;SDS011;29631;49.168;9.848;2023-08-31T09:36:32;2.00;;;1.42;;
40501;SDS011;29631;49.168;9.848;2023-08-31T09:38:58;1.52;;;1.40;;
40501;SDS011;29631;49.168;9.848;2023-08-31T09:41:24;1.70;;;1.60;;
40501;SDS011;29631;49.168;9.848;2023-08-31T09:43:50;1.83;;;1.52;;
40501;SDS011;29631;49.168;9.848;2023-08-31T09:46:16;1.58;;;1.50;;
40501;SDS011;29631;49.168;9.848;2023-08-31T09:48:42;2.08;;;1.80;;
40501;SDS011;29631;49.168;9.848;2023-08-31T09:51:11;2.10;;;1.73;;
40501;SDS011;29631;49.168;9.848;2023-08-31T09:53:42;1.92;;;1.40;;
40501;SDS011;29631;49.168;9.848;2023-08-31T09:56:11;2.45;;;1.60;;
40501;SDS011;29631;49.168;9.848;2023-08-31T09:58:41;3.17;;;1.83;;
40501;SDS011;29631;49.168;9.848;2023-08-31T10:01:07;2.00;;;1.63;;
40501;SDS011;29631;49.168;9.848;2023-08-31T10:03:33;1.55;;;1.40;;
40501;SDS011;29631;49.168;9.848;2023-08-31T10:06:00;2.92;;;1.88;;
40501;SDS011;29631;49.168;9.848;2023-08-31T10:08:26;2.25;;;1.80;;
40501;SDS011;29631;49.168;9.848;2023-08-31T10:10:56;1.52;;;1.45;;
40501;SDS011;29631;49.168;9.848;2023-08-31T10:13:28;2.17;;;1.70;;
40501;SDS011;29631;49.168;9.848;2023-08-31T10:16:00;2.17;;;1.73;;
40501;SDS011;29631;49.168;9.848;2023-08-31T10:18:28;2.95;;;1.30;;
40501;SDS011;29631;49.168;9.848;2023-08-31T10:20:55;2.58;;;1.95;;
40501;SDS011;29631;49.168;9.848;2023-08-31T10:23:21;2.97;;;1.55;;
40501;SDS011;29631;49.168;9.848;2023-08-31T10:28:22;2.03;;;1.50;;
40501;SDS011;29631;49.168;9.848;2023-08-31T10:31:06;1.85;;;1.60;;
40501;SDS011;29631;49.168;9.848;2023-08-31T10:33:41;1.88;;;1.60;;
40501;SDS011;29631;49.168;9.848;2023-08-31T10:36:18;2.78;;;1.70;;
40501;SDS011;29631;49.168;9.848;2023-08-31T10:38:45;1.55;;;1.35;;
40501;SDS011;29631;49.168;9.848;2023-08-31T10:46:32;1.60;;;1.50;;
40501;SDS011;29631;49.168;9.848;2023-08-31T10:51:36;1.95;;;1.63;;
40501;SDS011;29631;49.168;9.848;2023-08-31T10:54:11;1.83;;;1.70;;
40501;SDS011;29631;49.168;9.848;2023-08-31T10:56:54;2.53;;;1.83;;
40501;SDS011;29631;49.168;9.848;2023-08-31T10:59:24;1.63;;;1.52;;
40501;SDS011;29631;49.168;9.848;2023-08-31T11:04:26;2.13;;;1.92;;
40501;SDS011;29631;49.168;9.848;2023-08-31T11:09:43;2.25;;;1.77;;
40501;SDS011;29631;49.168;9.848;2023-08-31T11:12:11;1.95;;;1.58;;
40501;SDS011;29631;49.168;9.848;2023-08-31T11:14:38;1.73;;;1.63;;
40501;SDS011;29631;49.168;9.848;2023-08-31T11:17:04;1.48;;;1.48;;
40501;SDS011;29631;49.168;9.848;2023-08-31T11:19:31;2.22;;;1.88;;
40501;SDS011;29631;49.168;9.848;2023-08-31T11:21:58;1.70;;;1.60;;
40501;SDS011;29631;49.168;9.848;2023-08-31T11:24:31;1.60;;;1.50;;
40501;SDS011;29631;49.168;9.848;2023-08-31T11:26:58;1.80;;;1.65;;
40501;SDS011;29631;49.168;9.848;2023-08-31T11:29:24;3.00;;;2.70;;
40501;SDS011;29631;49.168;9.848;2023-08-31T11:31:50;3.58;;;1.98;;
40501;SDS011;29631;49.168;9.848;2023-08-31T11:34:16;1.90;;;1.70;;
40501;SDS011;29631;49.168;9.848;2023-08-31T11:36:44;2.15;;;1.98;;
40501;SDS011;29631;49.168;9.848;2023-08-31T11:39:12;11.27;;;6.65;;
40501;SDS011;29631;49.168;9.848;2023-08-31T11:41:38;6.95;;;5.07;;
40501;SDS011;29631;49.168;9.848;2023-08-31T11:44:08;2.90;;;2.50;;
40501;SDS011;29631;49.168;9.848;2023-08-31T11:46:39;2.70;;;2.50;;
40501;SDS011;29631;49.168;9.848;2023-08-31T11:49:08;2.00;;;1.88;;
40501;SDS011;29631;49.168;9.848;2023-08-31T11:51:34;3.38;;;3.05;;
40501;SDS011;29631;49.168;9.848;2023-08-31T11:54:04;2.55;;;2.35;;
40501;SDS011;29631;49.168;9.848;2023-08-31T11:56:40;2.20;;;2.00;;
40501;SDS011;29631;49.168;9.848;2023-08-31T11:59:17;1.90;;;1.80;;
40501;SDS011;29631;49.168;9.848;2023-08-31T12:01:47;1.45;;;1.40;;
40501;SDS011;29631;49.168;9.848;2023-08-31T12:04:21;1.60;;;1.52;;
40501;SDS011;29631;49.168;9.848;2023-08-31T12:06:48;3.55;;;1.75;;
40501;SDS011;29631;49.168;9.848;2023-08-31T12:09:16;1.55;;;1.45;;
40501;SDS011;29631;49.168;9.848;2023-08-31T12:11:48;1.50;;;1.40;;
40501;SDS011;29631;49.168;9.848;2023-08-31T12:14:23;2.00;;;1.90;;
40501;SDS011;29631;49.168;9.848;2023-08-31T12:16:51;1.95;;;1.85;;
40501;SDS011;29631;49.168;9.848;2023-08-31T12:19:26;2.72;;;1.80;;
40501;SDS011;29631;49.168;9.848;2023-08-31T12:21:54;2.17;;;1.98;;
40501;SDS011;29631;49.168;9.848;2023-08-31T12:24:20;2.05;;;1.90;;
40501;SDS011;29631;49.168;9.848;2023-08-31T12:26:47;4.55;;;2.00;;
40501;SDS011;29631;49.168;9.848;2023-08-31T12:29:13;4.25;;;2.30;;
40501;SDS011;29631;49.168;9.848;2023-08-31T12:31:38;1.55;;;1.45;;
40501;SDS011;29631;49.168;9.848;2023-08-31T12:34:04;1.65;;;1.55;;
40501;SDS011;29631;49.168;9.848;2023-08-31T12:36:32;1.63;;;1.52;;
40501;SDS011;29631;49.168;9.848;2023-08-31T12:38:58;4.18;;;1.50;;
40501;SDS011;29631;49.168;9.848;2023-08-31T12:41:30;1.80;;;1.70;;
40501;SDS011;29631;49.168;9.848;2023-08-31T12:43:56;2.83;;;1.70;;
40501;SDS011;29631;49.168;9.848;2023-08-31T12:46:24;2.58;;;1.65;;
40501;SDS011;29631;49.168;9.848;2023-08-31T12:48:50;2.08;;;1.95;;
40501;SDS011;29631;49.168;9.848;2023-08-31T12:51:17;2.25;;;1.80;;
40501;SDS011;29631;49.168;9.848;2023-08-31T12:53:43;1.85;;;1.75;;
40501;SDS011;29631;49.168;9.848;2023-08-31T12:56:09;1.58;;;1.48;;
40501;SDS011;29631;49.168;9.848;2023-08-31T12:58:35;2.08;;;1.75;;
40501;SDS011;29631;49.168;9.848;2023-08-31T13:01:01;4.05;;;1.77;;
40501;SDS011;29631;49.168;9.848;2023-08-31T13:03:27;2.38;;;1.80;;
40501;SDS011;29631;49.168;9.848;2023-08-31T13:05:53;1.75;;;1.65;;
40501;SDS011;29631;49.168;9.848;2023-08-31T13:08:19;4.20;;;2.10;;
40501;SDS011;29631;49.168;9.848;2023-08-31T13:10:54;2.15;;;1.67;;
40501;SDS011;29631;49.168;9.848;2023-08-31T13:13:20;1.42;;;1.33;;
40501;SDS011;29631;49.168;9.848;2023-08-31T13:15:47;2.10;;;1.88;;
40501;SDS011;29631;49.168;9.848;2023-08-31T13:18:13;3.22;;;1.70;;
40501;SDS011;29631;49.168;9.848;2023-08-31T13:20:39;1.83;;;1.73;;
40501;SDS011;29631;49.168;9.848;2023-08-31T13:23:06;2.22;;;1.80;;
40501;SDS011;29631;49.168;9.848;2023-08-31T13:25:32;1.98;;;1.77;;
40501;SDS011;29631;49.168;9.848;2023-08-31T13:27:58;2.03;;;1.83;;
40501;SDS011;29631;49.168;9.848;2023-08-31T13:30:23;3.13;;;1.80;;
40501;SDS011;29631;49.168;9.848;2023-08-31T13:32:49;2.30;;;1.80;;
40501;SDS011;29631;49.168;9.848;2023-08-31T13:35:15;3.35;;;1.63;;
40501;SDS011;29631;49.168;9.848;2023-08-31T13:37:41;2.25;;;1.77;;
40501;SDS011;29631;49.168;9.848;2023-08-31T13:40:07;1.73;;;1.63;;
40501;SDS011;29631;49.168;9.848;2023-08-31T13:42:34;1.70;;;1.60;;
40501;SDS011;29631;49.168;9.848;2023-08-31T13:45:03;1.92;;;1.80;;
40501;SDS011;29631;49.168;9.848;2023-08-31T13:47:33;2.50;;;1.77;;
40501;SDS011;29631;49.168;9.848;2023-08-31T13:49:59;1.50;;;1.40;;
40501;SDS011;29631;49.168;9.848;2023-08-31T13:52:25;1.92;;;1.80;;
40501;SDS011;29631;49.168;9.848;2023-08-31T13:54:51;1.63;;;1.38;;
40501;SDS011;29631;49.168;9.848;2023-08-31T13:57:17;1.73;;;1.60;;
40501;SDS011;29631;49.168;9.848;2023-08-31T13:59:43;3.17;;;1.70;;
40501;SDS011;29631;49.168;9.848;2023-08-31T14:02:09;2.08;;;1.92;;
40501;SDS011;29631;49.168;9.848;2023-08-31T14:04:35;2.00;;;1.60;;
40501;SDS011;29631;49.168;9.848;2023-08-31T14:07:01;3.13;;;1.80;;
40501;SDS011;29631;49.168;9.848;2023-08-31T14:09:27;3.85;;;1.63;;
40501;SDS011;29631;49.168;9.848;2023-08-31T14:11:53;3.15;;;1.65;;
40501;SDS011;29631;49.168;9.848;2023-08-31T14:14:22;2.15;;;2.03;;
40501;SDS011;29631;49.168;9.848;2023-08-31T14:16:48;2.35;;;1.90;;
40501;SDS011;29631;49.168;9.848;2023-08-31T14:19:15;1.70;;;1.60;;
40501;SDS011;29631;49.168;9.848;2023-08-31T14:21:41;2.70;;;1.77;;
40501;SDS011;29631;49.168;9.848;2023-08-31T14:24:07;2.97;;;1.73;;
40501;SDS011;29631;49.168;9.848;2023-08-31T14:26:32;3.40;;;1.48;;
40501;SDS011;29631;49.168;9.848;2023-08-31T14:28:58;2.63;;;2.03;;
40501;SDS011;29631;49.168;9.848;2023-08-31T14:31:24;4.95;;;1.90;;
40501;SDS011;29631;49.168;9.848;2023-08-31T14:33:50;1.98;;;1.77;;
40501;SDS011;29631;49.168;9.848;2023-08-31T14:36:17;2.10;;;1.90;;
40501;SDS011;29631;49.168;9.848;2023-08-31T14:38:43;2.55;;;1.70;;
40501;SDS011;29631;49.168;9.848;2023-08-31T14:41:10;3.25;;;1.80;;
40501;SDS011;29631;49.168;9.848;2023-08-31T14:43:36;2.38;;;1.80;;
40501;SDS011;29631;49.168;9.848;2023-08-31T14:46:02;3.25;;;1.95;;
40501;SDS011;29631;49.168;9.848;2023-08-31T14:48:29;1.83;;;1.73;;
40501;SDS011;29631;49.168;9.848;2023-08-31T14:50:56;1.90;;;1.75;;
40501;SDS011;29631;49.168;9.848;2023-08-31T14:53:26;1.77;;;1.67;;
40501;SDS011;29631;49.168;9.848;2023-08-31T14:55:52;2.10;;;1.85;;
40501;SDS011;29631;49.168;9.848;2023-08-31T14:58:18;2.85;;;1.80;;
40501;SDS011;29631;49.168;9.848;2023-08-31T15:00:44;3.88;;;2.00;;
40501;SDS011;29631;49.168;9.848;2023-08-31T15:03:11;2.08;;;1.92;;
40501;SDS011;29631;49.168;9.848;2023-08-31T15:05:37;2.00;;;1.73;;
40501;SDS011;29631;49.168;9.848;2023-08-31T15:08:06;2.85;;;1.73;;